createdAt,value
2022-12-31T00:02:07.537Z,1.98
2022-12-31T00:04:35.635Z,1.83
2022-12-31T00:07:03.794Z,1.71
2022-12-31T00:09:31.876Z,1.71
2022-12-31T00:12:00.033Z,1.77
2022-12-31T00:14:28.074Z,1.83
2022-12-31T00:16:57.638Z,1.81
2022-12-31T00:19:25.743Z,1.75
2022-12-31T00:21:53.811Z,1.71
2022-12-31T00:24:22.016Z,1.71
2022-12-31T00:26:50.081Z,1.71
2022-12-31T00:29:18.197Z,1.71
2022-12-31T00:31:46.397Z,1.70
2022-12-31T00:34:15.807Z,1.76
2022-12-31T00:36:46.230Z,1.79
2022-12-31T00:39:14.504Z,1.79
2022-12-31T00:41:44.141Z,1.76
2022-12-31T00:44:13.384Z,1.77
2022-12-31T00:49:08.398Z,1.83
2022-12-31T00:51:37.884Z,1.83
2022-12-31T00:54:06.033Z,1.79
2022-12-31T00:56:34.182Z,1.84
2022-12-31T00:59:02.324Z,1.86
2022-12-31T01:01:32.243Z,1.86
2022-12-31T01:04:06.932Z,1.88
2022-12-31T01:06:35.263Z,1.94
2022-12-31T01:09:05.381Z,2.04
2022-12-31T01:11:33.908Z,2.04
2022-12-31T01:14:04.097Z,1.97
2022-12-31T01:16:34.403Z,2.07
2022-12-31T01:19:04.832Z,2.10
2022-12-31T01:21:33.771Z,2.14
2022-12-31T01:24:01.928Z,2.15
2022-12-31T01:26:31.476Z,2.00
2022-12-31T01:29:00.355Z,1.92
2022-12-31T01:31:28.764Z,1.79
2022-12-31T01:33:56.950Z,1.69
2022-12-31T01:36:26.999Z,1.66
2022-12-31T01:38:55.958Z,1.63
2022-12-31T01:41:25.419Z,1.61
2022-12-31T01:43:57.544Z,1.54
2022-12-31T01:46:32.261Z,1.48
2022-12-31T01:49:03.155Z,1.49
2022-12-31T01:51:33.954Z,1.51
2022-12-31T01:54:04.438Z,1.55
2022-12-31T01:56:32.552Z,1.58
2022-12-31T01:59:02.380Z,1.53
2022-12-31T02:01:34.069Z,1.55
2022-12-31T02:04:08.057Z,1.47
2022-12-31T02:06:41.412Z,1.39
2022-12-31T02:09:10.253Z,1.39
2022-12-31T02:11:38.281Z,1.33
2022-12-31T02:14:10.896Z,1.33
2022-12-31T02:16:46.131Z,1.45
2022-12-31T02:19:47.576Z,1.40
2022-12-31T02:22:29.794Z,1.27
2022-12-31T02:25:25.496Z,1.23
2022-12-31T02:28:04.300Z,1.20
2022-12-31T02:30:34.552Z,1.20
2022-12-31T02:33:14.360Z,1.17
2022-12-31T02:35:50.760Z,1.20
2022-12-31T02:38:24.151Z,1.22
2022-12-31T02:40:54.457Z,1.19
2022-12-31T02:43:22.456Z,1.11
2022-12-31T02:45:59.864Z,1.06
2022-12-31T02:48:41.805Z,1.07
2022-12-31T02:51:24.146Z,1.07
2022-12-31T02:54:08.054Z,1.05
2022-12-31T02:56:43.421Z,1.08
2022-12-31T02:59:38.137Z,1.17
2022-12-31T03:02:19.453Z,1.29
2022-12-31T03:04:52.559Z,1.28
2022-12-31T03:07:23.263Z,1.36
2022-12-31T03:09:51.877Z,1.34
2022-12-31T03:12:39.758Z,1.22
2022-12-31T03:15:20.053Z,1.10
2022-12-31T03:17:58.450Z,1.07
2022-12-31T03:20:47.804Z,1.07
2022-12-31T03:23:19.131Z,1.09
2022-12-31T03:25:46.259Z,1.18
2022-12-31T03:28:16.520Z,1.19
2022-12-31T03:30:46.993Z,1.20
2022-12-31T03:33:17.158Z,1.15
2022-12-31T03:35:48.269Z,1.07
2022-12-31T03:38:16.946Z,1.10
2022-12-31T03:40:47.176Z,1.18
2022-12-31T03:43:15.434Z,1.26
2022-12-31T03:45:43.696Z,1.21
2022-12-31T03:48:12.177Z,1.11
2022-12-31T03:50:41.600Z,1.01
2022-12-31T03:53:09.815Z,1.02
2022-12-31T03:55:37.999Z,1.07
2022-12-31T03:58:06.480Z,1.03
2022-12-31T04:00:34.644Z,0.96
2022-12-31T04:03:02.733Z,0.92
2022-12-31T04:05:31.400Z,0.88
2022-12-31T04:08:00.828Z,0.85
2022-12-31T04:10:28.904Z,0.95
2022-12-31T04:12:56.898Z,1.12
2022-12-31T04:15:25.014Z,1.09
2022-12-31T04:17:52.981Z,0.99
2022-12-31T04:20:21.069Z,0.89
2022-12-31T04:22:49.197Z,0.84
2022-12-31T04:25:18.944Z,0.80
2022-12-31T04:27:47.216Z,0.78
2022-12-31T04:30:16.275Z,0.88
2022-12-31T04:32:44.273Z,0.95
2022-12-31T04:35:12.714Z,0.96
2022-12-31T04:37:40.971Z,0.94
2022-12-31T04:40:11.212Z,0.95
2022-12-31T04:42:40.709Z,0.96
2022-12-31T04:45:09.868Z,1.01
2022-12-31T04:47:37.885Z,1.07
2022-12-31T04:50:07.391Z,1.11
2022-12-31T04:52:40.452Z,1.14
2022-12-31T04:55:11.064Z,1.18
2022-12-31T04:57:40.663Z,1.23
2022-12-31T05:00:10.126Z,1.31
2022-12-31T05:02:38.377Z,1.36
2022-12-31T05:05:07.354Z,1.34
2022-12-31T05:07:35.299Z,1.41
2022-12-31T05:10:03.409Z,1.40
2022-12-31T05:12:31.443Z,1.39
2022-12-31T05:15:00.909Z,1.43
2022-12-31T05:17:28.868Z,1.53
2022-12-31T05:19:56.920Z,1.62
2022-12-31T05:22:30.816Z,1.73
2022-12-31T05:24:59.819Z,1.73
2022-12-31T05:27:31.253Z,1.72
2022-12-31T05:30:01.495Z,1.65
2022-12-31T05:32:29.544Z,1.77
2022-12-31T05:34:58.169Z,1.63
2022-12-31T05:37:26.258Z,1.60
2022-12-31T05:39:54.451Z,1.62
2022-12-31T05:42:22.776Z,1.65
2022-12-31T05:44:51.223Z,1.70
2022-12-31T05:47:20.861Z,1.73
2022-12-31T05:49:49.140Z,1.70
2022-12-31T05:52:17.499Z,1.75
2022-12-31T05:54:45.679Z,1.71
2022-12-31T05:57:13.900Z,1.64
2022-12-31T05:59:42.210Z,1.64
2022-12-31T06:02:10.205Z,1.83
2022-12-31T06:04:39.727Z,1.79
2022-12-31T06:07:07.762Z,1.70
2022-12-31T06:09:35.801Z,1.68
2022-12-31T06:12:03.967Z,1.70
2022-12-31T06:14:32.134Z,1.69
2022-12-31T06:17:00.252Z,1.62
2022-12-31T06:19:28.267Z,1.63
2022-12-31T06:21:57.731Z,1.68
2022-12-31T06:24:25.720Z,1.71
2022-12-31T06:26:53.862Z,1.70
2022-12-31T06:29:21.938Z,1.72
2022-12-31T06:31:50.092Z,1.83
2022-12-31T06:34:18.410Z,1.90
2022-12-31T06:36:46.578Z,1.96
2022-12-31T06:39:16.133Z,1.95
2022-12-31T06:41:44.163Z,1.99
2022-12-31T06:44:12.310Z,2.11
2022-12-31T06:46:40.334Z,2.20
2022-12-31T06:49:08.444Z,2.28
2022-12-31T06:51:36.426Z,2.33
2022-12-31T06:54:04.528Z,2.45
2022-12-31T06:56:35.156Z,2.58
2022-12-31T06:59:04.990Z,2.79
2022-12-31T07:01:50.302Z,3.03
2022-12-31T07:04:51.315Z,3.04
2022-12-31T07:07:26.942Z,3.07
2022-12-31T07:10:02.582Z,3.16
2022-12-31T07:12:48.238Z,3.22
2022-12-31T07:15:21.144Z,3.15
2022-12-31T07:17:55.972Z,3.18
2022-12-31T07:20:25.980Z,3.19
2022-12-31T07:22:57.822Z,3.20
2022-12-31T07:25:26.528Z,3.19
2022-12-31T07:28:07.285Z,3.33
2022-12-31T07:30:44.051Z,3.46
2022-12-31T07:33:31.240Z,3.57
2022-12-31T07:36:10.879Z,3.65
2022-12-31T07:38:49.025Z,3.70
2022-12-31T07:41:25.177Z,3.82
2022-12-31T07:44:02.373Z,3.84
2022-12-31T07:46:38.404Z,3.96
2022-12-31T07:49:10.899Z,3.93
2022-12-31T07:51:39.747Z,3.87
2022-12-31T07:54:13.632Z,3.96
2022-12-31T07:56:42.877Z,3.95
2022-12-31T07:59:24.277Z,3.98
2022-12-31T08:02:00.074Z,4.07
2022-12-31T08:04:33.830Z,4.13
2022-12-31T08:07:12.861Z,4.17
2022-12-31T08:09:48.386Z,4.13
2022-12-31T08:12:16.841Z,4.20
2022-12-31T08:14:48.718Z,4.31
2022-12-31T08:17:19.150Z,4.37
2022-12-31T08:19:50.109Z,4.43
2022-12-31T08:22:43.227Z,4.51
2022-12-31T08:25:24.960Z,4.58
2022-12-31T08:28:04.211Z,4.68
2022-12-31T08:30:43.190Z,4.75
2022-12-31T08:33:15.625Z,4.84
2022-12-31T08:35:58.434Z,4.90
2022-12-31T08:38:33.488Z,5.01
2022-12-31T08:41:09.650Z,5.08
2022-12-31T08:43:49.644Z,5.24
2022-12-31T08:46:25.603Z,5.28
2022-12-31T08:48:54.817Z,5.32
2022-12-31T08:51:25.428Z,5.36
2022-12-31T08:53:55.448Z,5.49
2022-12-31T08:56:31.220Z,5.56
2022-12-31T08:59:12.680Z,5.67
2022-12-31T09:01:59.260Z,5.74
2022-12-31T09:04:36.955Z,5.80
2022-12-31T09:07:06.306Z,6.03
2022-12-31T09:09:43.671Z,6.06
2022-12-31T09:12:19.923Z,6.11
2022-12-31T09:14:51.929Z,6.13
2022-12-31T09:17:45.192Z,6.19
2022-12-31T09:20:24.961Z,6.26
2022-12-31T09:22:54.565Z,6.39
2022-12-31T09:25:25.066Z,6.47
2022-12-31T09:28:10.526Z,6.60
2022-12-31T09:30:47.309Z,6.70
2022-12-31T09:33:31.003Z,6.80
2022-12-31T09:36:03.334Z,7.00
2022-12-31T09:38:42.235Z,7.07
2022-12-31T09:41:18.040Z,7.19
2022-12-31T09:44:33.028Z,7.31
2022-12-31T09:47:33.693Z,7.33
2022-12-31T09:50:22.238Z,7.44
2022-12-31T09:53:06.319Z,7.51
2022-12-31T09:55:38.623Z,7.59
2022-12-31T09:58:24.845Z,7.71
2022-12-31T10:00:59.000Z,7.76
2022-12-31T10:03:54.751Z,7.90
2022-12-31T10:06:28.185Z,8.10
2022-12-31T10:09:17.930Z,8.29
2022-12-31T10:12:03.108Z,8.39
2022-12-31T10:14:47.525Z,8.46
2022-12-31T10:17:28.099Z,8.46
2022-12-31T10:20:21.497Z,8.51
2022-12-31T10:23:31.437Z,8.57
2022-12-31T10:26:28.046Z,8.67
2022-12-31T10:29:00.884Z,8.87
2022-12-31T10:31:40.522Z,8.98
2022-12-31T10:34:26.396Z,9.10
2022-12-31T10:36:59.135Z,9.22
2022-12-31T10:39:39.940Z,9.21
2022-12-31T10:42:35.587Z,9.29
2022-12-31T10:45:31.807Z,9.39
2022-12-31T10:48:50.676Z,9.54
2022-12-31T10:51:48.077Z,9.63
2022-12-31T10:54:51.982Z,9.73
2022-12-31T10:57:52.767Z,9.74
2022-12-31T11:00:22.677Z,10.02
2022-12-31T11:03:47.436Z,10.09
2022-12-31T11:06:42.317Z,10.12
2022-12-31T11:09:46.081Z,10.14
2022-12-31T11:12:47.430Z,10.13
2022-12-31T11:15:29.867Z,10.10
2022-12-31T11:18:08.941Z,10.12
2022-12-31T11:20:57.377Z,10.30
2022-12-31T11:23:38.274Z,10.36
2022-12-31T11:26:19.908Z,10.62
2022-12-31T11:29:29.546Z,10.57
2022-12-31T11:32:24.064Z,10.56
2022-12-31T11:35:17.113Z,10.60
2022-12-31T11:37:48.801Z,10.66
2022-12-31T11:40:32.424Z,10.69
2022-12-31T11:43:05.633Z,10.67
2022-12-31T11:45:55.728Z,10.95
2022-12-31T11:48:33.726Z,11.00
2022-12-31T11:51:23.921Z,10.96
2022-12-31T11:54:25.237Z,11.03
2022-12-31T11:57:04.095Z,11.08
2022-12-31T11:59:32.577Z,11.16
2022-12-31T12:02:06.663Z,11.18
2022-12-31T12:04:36.236Z,11.23
2022-12-31T12:07:04.374Z,11.35
2022-12-31T12:09:35.912Z,11.52
2022-12-31T12:12:06.319Z,11.51
2022-12-31T12:14:36.581Z,11.50
2022-12-31T12:17:07.756Z,11.49
2022-12-31T12:19:43.087Z,11.56
2022-12-31T12:22:12.229Z,11.64
2022-12-31T12:24:40.555Z,11.61
2022-12-31T12:27:23.942Z,11.68
2022-12-31T12:29:52.101Z,11.72
2022-12-31T12:32:23.075Z,11.72
2022-12-31T12:34:53.187Z,11.75
2022-12-31T12:37:32.438Z,11.87
2022-12-31T12:40:02.354Z,11.92
2022-12-31T12:42:31.401Z,11.98
2022-12-31T12:45:05.148Z,12.00
2022-12-31T12:47:34.255Z,12.01
2022-12-31T12:50:06.187Z,12.03
2022-12-31T12:52:59.198Z,12.13
2022-12-31T12:55:36.838Z,12.12
2022-12-31T12:58:19.451Z,12.16
2022-12-31T13:01:01.533Z,12.19
2022-12-31T13:04:32.959Z,12.21
2022-12-31T13:06:59.834Z,12.27
2022-12-31T13:09:40.779Z,12.24
2022-12-31T13:12:20.518Z,12.37
2022-12-31T13:14:56.454Z,12.31
2022-12-31T13:17:36.982Z,12.31
2022-12-31T13:20:13.449Z,12.34
2022-12-31T13:22:49.323Z,12.45
2022-12-31T13:25:27.445Z,12.45
2022-12-31T13:27:59.775Z,12.61
2022-12-31T13:30:33.957Z,12.65
2022-12-31T13:33:08.622Z,12.56
2022-12-31T13:35:44.479Z,12.59
2022-12-31T13:38:18.887Z,12.58
2022-12-31T13:40:53.272Z,12.56
2022-12-31T13:43:28.865Z,12.55
2022-12-31T13:46:07.222Z,12.57
2022-12-31T13:48:41.913Z,12.58
2022-12-31T13:51:16.501Z,12.63
2022-12-31T13:53:52.876Z,12.72
2022-12-31T13:56:26.067Z,12.69
2022-12-31T13:58:59.551Z,12.69
2022-12-31T14:01:34.594Z,12.63
2022-12-31T14:04:09.393Z,12.66
2022-12-31T14:06:46.053Z,12.67
2022-12-31T14:09:21.493Z,12.56
2022-12-31T14:12:10.539Z,12.42
2022-12-31T14:14:47.555Z,12.47
2022-12-31T14:17:24.762Z,12.48
2022-12-31T14:20:02.062Z,12.52
2022-12-31T14:22:37.337Z,12.42
2022-12-31T14:25:19.013Z,12.39
2022-12-31T14:27:49.395Z,12.39
2022-12-31T14:30:20.843Z,12.35
2022-12-31T14:33:11.871Z,12.30
2022-12-31T14:35:59.086Z,12.38
2022-12-31T14:38:39.971Z,12.22
2022-12-31T14:41:20.462Z,12.13
2022-12-31T14:44:01.064Z,12.09
2022-12-31T14:46:37.275Z,12.06
2022-12-31T14:49:21.418Z,12.06
2022-12-31T14:51:49.775Z,12.07
2022-12-31T14:54:29.516Z,12.08
2022-12-31T14:56:59.036Z,12.02
2022-12-31T14:59:29.212Z,11.99
2022-12-31T15:01:59.106Z,11.92
2022-12-31T15:04:35.568Z,11.88
2022-12-31T15:07:12.127Z,11.79
2022-12-31T15:09:59.202Z,11.66
2022-12-31T15:12:47.945Z,11.61
2022-12-31T15:15:33.429Z,11.64
2022-12-31T15:18:18.911Z,11.61
2022-12-31T15:21:12.889Z,11.52
2022-12-31T15:23:43.901Z,11.41
2022-12-31T15:26:23.951Z,11.32
2022-12-31T15:29:03.533Z,11.25
2022-12-31T15:31:34.046Z,11.21
2022-12-31T15:34:04.192Z,11.14
2022-12-31T15:36:35.777Z,11.14
2022-12-31T15:39:37.123Z,11.04
2022-12-31T15:45:01.696Z,10.79
2022-12-31T15:47:32.089Z,10.67
2022-12-31T15:50:03.925Z,10.54
2022-12-31T15:52:44.815Z,10.37
2022-12-31T15:55:23.364Z,10.20
2022-12-31T15:57:51.867Z,10.23
2022-12-31T16:00:24.084Z,10.18
2022-12-31T16:02:55.765Z,10.19
2022-12-31T16:05:27.087Z,10.16
2022-12-31T16:07:57.286Z,10.16
2022-12-31T16:10:28.044Z,10.10
2022-12-31T16:12:58.026Z,10.05
2022-12-31T16:15:30.514Z,9.98
2022-12-31T16:18:04.590Z,9.92
2022-12-31T16:20:34.799Z,9.88
2022-12-31T16:23:04.522Z,9.85
2022-12-31T16:25:34.247Z,9.83
2022-12-31T16:28:04.972Z,9.86
2022-12-31T16:30:37.083Z,9.79
2022-12-31T16:33:13.055Z,9.67
2022-12-31T16:35:41.353Z,9.61
2022-12-31T16:38:16.322Z,9.56
2022-12-31T16:40:47.037Z,9.59
2022-12-31T16:43:27.470Z,9.61
2022-12-31T16:46:00.038Z,9.57
2022-12-31T16:48:28.526Z,9.58
2022-12-31T16:50:57.990Z,9.54
2022-12-31T16:53:30.006Z,9.44
2022-12-31T16:56:03.597Z,9.38
2022-12-31T16:58:34.134Z,9.37
2022-12-31T17:01:14.388Z,9.38
2022-12-31T17:03:46.963Z,9.30
2022-12-31T17:06:18.103Z,9.24
2022-12-31T17:09:06.260Z,9.20
2022-12-31T17:11:36.371Z,9.13
2022-12-31T17:14:13.713Z,9.10
2022-12-31T17:17:01.450Z,9.35
2022-12-31T17:19:40.311Z,9.09
2022-12-31T17:22:14.580Z,9.04
2022-12-31T17:24:42.883Z,8.98
2022-12-31T17:27:11.678Z,8.93
2022-12-31T17:29:39.957Z,9.06
2022-12-31T17:32:29.863Z,9.03
2022-12-31T17:34:58.017Z,8.81
2022-12-31T17:37:28.423Z,8.85
2022-12-31T17:40:17.495Z,8.80
2022-12-31T17:42:49.500Z,8.67
2022-12-31T17:45:22.136Z,8.57
2022-12-31T17:47:54.061Z,8.59
2022-12-31T17:50:24.255Z,8.54
2022-12-31T17:52:56.717Z,8.54
2022-12-31T17:55:25.146Z,8.71
2022-12-31T17:57:56.870Z,8.71
2022-12-31T18:00:27.650Z,8.86
2022-12-31T18:02:57.487Z,8.94
2022-12-31T18:05:26.040Z,8.91
2022-12-31T18:07:54.966Z,8.85
2022-12-31T18:10:25.788Z,8.75
2022-12-31T18:12:53.958Z,8.66
2022-12-31T18:15:24.041Z,8.63
2022-12-31T18:17:52.427Z,8.57
2022-12-31T18:20:21.912Z,8.43
2022-12-31T18:22:50.147Z,8.30
2022-12-31T18:25:20.670Z,8.19
2022-12-31T18:27:49.270Z,8.09
2022-12-31T18:30:17.770Z,8.09
2022-12-31T18:32:46.934Z,8.01
2022-12-31T18:35:48.660Z,7.81
2022-12-31T18:38:14.156Z,7.73
2022-12-31T18:40:46.555Z,7.64
2022-12-31T18:43:17.541Z,7.59
2022-12-31T18:45:46.752Z,7.46
2022-12-31T18:48:14.952Z,7.32
2022-12-31T18:50:43.501Z,7.24
2022-12-31T18:53:18.188Z,7.17
2022-12-31T18:55:49.768Z,7.10
2022-12-31T18:58:20.759Z,7.14
2022-12-31T19:00:50.175Z,7.22
2022-12-31T19:03:21.155Z,7.32
2022-12-31T19:05:51.120Z,7.30
2022-12-31T19:08:22.736Z,7.32
2022-12-31T19:10:53.607Z,7.20
2022-12-31T19:13:23.396Z,7.20
2022-12-31T19:15:53.443Z,7.10
2022-12-31T19:18:21.530Z,6.96
2022-12-31T19:20:49.642Z,6.98
2022-12-31T19:23:19.891Z,6.97
2022-12-31T19:25:50.987Z,6.89
2022-12-31T19:28:21.485Z,6.78
2022-12-31T19:30:50.045Z,6.66
2022-12-31T19:33:18.739Z,6.65
2022-12-31T19:35:47.319Z,6.59
2022-12-31T19:38:20.667Z,6.57
2022-12-31T19:40:51.643Z,6.51
2022-12-31T19:43:21.932Z,6.48
2022-12-31T19:45:51.139Z,6.55
2022-12-31T19:48:22.849Z,6.44
2022-12-31T19:50:54.439Z,6.42
2022-12-31T19:53:26.348Z,6.28
2022-12-31T19:55:56.135Z,6.17
2022-12-31T19:58:26.588Z,6.13
2022-12-31T20:01:01.896Z,6.24
2022-12-31T20:03:32.628Z,6.32
2022-12-31T20:06:05.939Z,6.15
2022-12-31T20:08:34.753Z,6.07
2022-12-31T20:11:12.734Z,5.95
2022-12-31T20:13:41.784Z,5.89
2022-12-31T20:16:12.346Z,5.84
2022-12-31T20:18:41.676Z,5.72
2022-12-31T20:21:11.857Z,5.68
2022-12-31T20:23:39.947Z,5.64
2022-12-31T20:26:09.520Z,5.63
2022-12-31T20:28:38.335Z,5.62
2022-12-31T20:31:08.017Z,5.59
2022-12-31T20:33:36.332Z,5.58
2022-12-31T20:36:04.892Z,5.51
2022-12-31T20:38:33.042Z,5.44
2022-12-31T20:41:04.720Z,5.36
2022-12-31T20:43:34.268Z,5.31
2022-12-31T20:46:12.673Z,5.26
2022-12-31T20:48:43.099Z,5.20
2022-12-31T20:51:11.477Z,5.15
2022-12-31T20:53:39.755Z,5.11
2022-12-31T20:56:08.786Z,5.07
2022-12-31T20:58:38.381Z,5.02
2022-12-31T21:01:08.767Z,5.02
2022-12-31T21:04:04.468Z,5.01
2022-12-31T21:06:26.085Z,4.98
2022-12-31T21:08:55.318Z,5.09
2022-12-31T21:11:40.929Z,5.08
2022-12-31T21:14:10.770Z,5.30
2022-12-31T21:16:38.815Z,5.33
2022-12-31T21:19:07.207Z,5.25
2022-12-31T21:21:35.643Z,5.17
2022-12-31T21:24:03.798Z,5.06
2022-12-31T21:26:32.169Z,4.87
2022-12-31T21:29:00.608Z,4.73
2022-12-31T21:31:30.102Z,4.66
2022-12-31T21:33:58.227Z,4.63
2022-12-31T21:36:26.307Z,4.56
2022-12-31T21:38:54.426Z,4.52
2022-12-31T21:41:39.960Z,4.62
2022-12-31T21:44:08.084Z,4.73
2022-12-31T21:46:37.672Z,4.69
2022-12-31T21:49:05.907Z,4.58
2022-12-31T21:51:53.909Z,4.52
2022-12-31T21:54:36.034Z,4.44
2022-12-31T21:57:04.910Z,4.42
2022-12-31T22:00:09.140Z,4.51
2022-12-31T22:02:59.348Z,4.52
2022-12-31T22:05:29.366Z,4.61
2022-12-31T22:07:57.587Z,4.54
2022-12-31T22:10:25.855Z,4.51
2022-12-31T22:12:54.078Z,4.56
2022-12-31T22:15:22.418Z,4.66
2022-12-31T22:17:51.994Z,4.63
2022-12-31T22:20:29.341Z,4.55
2022-12-31T22:22:57.518Z,4.46
2022-12-31T22:25:25.587Z,4.47
2022-12-31T22:28:27.721Z,4.60
2022-12-31T22:30:42.504Z,4.74
2022-12-31T22:33:11.974Z,4.62
2022-12-31T22:35:40.159Z,4.53
2022-12-31T22:38:12.119Z,4.43
2022-12-31T22:40:40.602Z,4.39
2022-12-31T22:43:09.008Z,4.40
2022-12-31T22:45:37.924Z,4.35
2022-12-31T22:48:06.604Z,4.28
2022-12-31T22:50:36.151Z,4.17
2022-12-31T22:53:04.260Z,4.09
2022-12-31T22:55:32.744Z,4.05
2022-12-31T22:58:00.701Z,3.98
2022-12-31T23:00:40.307Z,3.91
2022-12-31T23:03:09.143Z,3.83
2022-12-31T23:05:38.735Z,3.77
2022-12-31T23:08:16.978Z,3.77
2022-12-31T23:11:00.233Z,3.73
2022-12-31T23:13:50.669Z,3.72
2022-12-31T23:16:37.608Z,3.68
2022-12-31T23:19:24.615Z,3.66
2022-12-31T23:22:12.844Z,3.67
2022-12-31T23:24:41.054Z,3.69
2022-12-31T23:27:09.783Z,3.78
2022-12-31T23:29:46.011Z,3.87
2022-12-31T23:32:16.108Z,3.90
2022-12-31T23:34:45.165Z,3.87
2022-12-31T23:37:15.201Z,3.76
2022-12-31T23:39:44.065Z,3.78
2022-12-31T23:42:12.344Z,3.79
2022-12-31T23:44:40.438Z,3.74
2022-12-31T23:47:08.594Z,3.90
2022-12-31T23:49:37.665Z,3.67
2022-12-31T23:52:05.893Z,3.62
2022-12-31T23:54:36.135Z,3.69
2022-12-31T23:57:04.209Z,3.63
2022-12-31T23:59:32.314Z,3.60
